Los Alamitos Army Air Field
KSLI : now visible

Airfield :











YOU CAN JOIN US ON...

 
LOGIN :

Register | Disclaimer

   EN    FR    IT 

 









Legend :    VFR   Marginal VFR   IFR   Intensive IFR   Very Intensive IFR
Visi :
Ceiling :
>= 8 km
>= 3000ft
5 to 8 km
1000 to 3000 ft
1500m to 5 km
500 to 1000 ft
800 to 1500m
200 to 500 ft
< 800m
< 200 ft
Symbols :   Thunderstorms  Fog  Heavy snow  Heavy precipitations  Wind > 20 kt






- Airport Elevation : 32 ft


KSLI - Los Alamitos Army Air Field

CURRENT METAR :
  • 230458Z AUTO 00000KT 10SM OVC016 17/15 A2995 RMK AO2 SLP145 T01720152 $

EXPIRED METARs :
  • 230408Z AUTO 17004KT 10SM OVC017 17/15 A2995 RMK AO2 SLP145 $
  • 230358Z AUTO 00000KT 10SM M 17/15 A2995 RMK AO2 SLP145 T01710153 $